Terminal Aerodrome Forecast
Issued by NWS Bismarck, ND

Home | Current Version | Previous Version | Graphics & Text | Print | Product List | Glossary On
Versions: 1 2 3 4 5 6 7 8 9 10 11 12 13 14 15
000
FTUS43 KBIS 200500
TAFISN
TAF
KISN 200539Z 2006/2106 30006KT P6SM SCT250
     FM200700 27006KT P6SM SCT120
     FM201400 30011KT P6SM BKN100
     FM201700 31018G26KT P6SM SCT250=

USA.gov is the U.S. government's official web portal to all federal, state and local government web resources and services.